Terminal Aerodrome Forecast
Issued by NWS Louisville, KY

Home | Current Version | Previous Version | Text Only | Print | Product List | Glossary On
Versions: 1 2 3 4 5 6 7 8 9 10 11 12 13 14 15 16 17 18 19 20 21
000
FTUS43 KLMK 191100
TAFLEX
TAF
KLEX 191124Z 1912/2012 12005KT P6SM -SHRA SCT006 BKN020
      TEMPO 1912/1915 3SM -SHRA BKN006
     FM191700 09007KT P6SM VCSH BKN018
     FM191900 10006KT P6SM VCSH BKN025
     FM192100 10006KT P6SM BKN035
     FM200900 VRB03KT 5SM BR SCT009 BKN015=

USA.gov is the U.S. government's official web portal to all federal, state and local government web resources and services.